createdAt,value
2019-02-14T00:01:56.861Z,9.50
2019-02-14T00:04:38.914Z,10.03
2019-02-14T00:07:28.641Z,10.20
2019-02-14T00:10:10.559Z,9.70
2019-02-14T00:13:00.321Z,8.97
2019-02-14T00:15:50.005Z,8.80
2019-02-14T00:18:32.246Z,9.20
2019-02-14T00:21:14.359Z,8.57
2019-02-14T00:24:04.148Z,8.57
2019-02-14T00:29:57.475Z,7.97
2019-02-14T00:32:39.695Z,8.03
2019-02-14T00:35:29.775Z,7.50
2019-02-14T00:38:19.547Z,7.63
2019-02-14T00:41:09.292Z,7.67
2019-02-14T00:44:18.166Z,7.50
2019-02-14T00:47:00.356Z,8.17
2019-02-14T00:49:50.104Z,8.07
2019-02-14T00:52:39.816Z,8.13
2019-02-14T00:55:22.498Z,7.63
2019-02-14T01:01:21.278Z,8.63
2019-02-14T01:04:04.016Z,8.40
2019-02-14T01:06:53.812Z,8.97
2019-02-14T01:09:56.286Z,8.77
2019-02-14T01:12:39.860Z,8.67
2019-02-14T01:18:26.586Z,8.60
2019-02-14T01:21:16.270Z,9.13
2019-02-14T01:23:58.182Z,9.20
2019-02-14T01:26:47.884Z,8.90
2019-02-14T01:29:29.819Z,7.60
2019-02-14T01:32:19.690Z,8.10
2019-02-14T01:35:01.648Z,7.93
2019-02-14T01:37:51.384Z,8.20
2019-02-14T01:40:33.778Z,8.70
2019-02-14T01:46:24.964Z,8.33
2019-02-14T01:49:14.662Z,7.97
2019-02-14T01:51:56.840Z,7.70
2019-02-14T01:54:46.569Z,8.07
2019-02-14T01:57:28.966Z,8.50
2019-02-14T02:03:22.066Z,7.77
2019-02-14T02:05:52.786Z,7.80
2019-02-14T02:08:42.508Z,7.57
2019-02-14T02:11:25.342Z,7.63
2019-02-14T02:14:15.118Z,7.80
2019-02-14T02:17:04.889Z,7.33
2019-02-14T02:19:54.676Z,8.10
2019-02-14T02:23:03.593Z,7.63
2019-02-14T02:25:53.305Z,8.50
2019-02-14T02:28:43.038Z,8.10
2019-02-14T02:31:32.774Z,8.57
2019-02-14T02:34:15.732Z,9.20
2019-02-14T02:40:08.937Z,9.00
2019-02-14T02:42:51.017Z,9.03
2019-02-14T02:45:40.921Z,8.50
2019-02-14T02:48:30.762Z,8.93
2019-02-14T02:51:20.529Z,8.77
2019-02-14T02:57:13.408Z,9.67
2019-02-14T02:59:55.591Z,9.00
2019-02-14T03:02:45.333Z,9.07
2019-02-14T03:05:27.364Z,9.10
2019-02-14T03:08:10.085Z,9.77
2019-02-14T03:10:59.829Z,9.90
2019-02-14T03:13:49.617Z,10.07
2019-02-14T03:16:39.418Z,9.57
2019-02-14T03:19:29.271Z,10.30
2019-02-14T03:22:18.995Z,9.57
2019-02-14T03:25:01.579Z,9.90
2019-02-14T03:27:51.402Z,9.20
2019-02-14T03:30:41.198Z,9.50
2019-02-14T03:33:31.054Z,8.77
2019-02-14T03:36:21.023Z,9.57
2019-02-14T03:39:10.899Z,9.27
2019-02-14T03:42:00.701Z,8.63
2019-02-14T03:44:50.477Z,8.73
2019-02-14T03:47:40.241Z,8.53
2019-02-14T03:50:29.959Z,9.00
2019-02-14T03:53:12.133Z,8.50
2019-02-14T03:56:01.877Z,9.10
2019-02-14T03:58:44.089Z,9.10
2019-02-14T04:01:33.838Z,8.60
2019-02-14T04:04:23.558Z,8.50
2019-02-14T04:07:13.488Z,8.73
2019-02-14T04:09:55.862Z,9.00
2019-02-14T04:13:04.655Z,9.20
2019-02-14T04:15:46.677Z,8.73
2019-02-14T04:18:36.532Z,8.83
2019-02-14T04:21:18.765Z,9.70
2019-02-14T04:24:08.481Z,9.50
2019-02-14T04:26:52.588Z,9.93
2019-02-14T04:29:42.309Z,9.53
2019-02-14T04:32:24.601Z,10.40
2019-02-14T04:35:14.642Z,9.40
2019-02-14T04:37:57.531Z,10.13
2019-02-14T04:40:47.265Z,9.57
2019-02-14T04:43:29.820Z,9.47
2019-02-14T04:46:19.531Z,10.10
2019-02-14T04:49:01.697Z,10.00
2019-02-14T04:51:51.408Z,8.63
2019-02-14T04:54:33.407Z,9.57
2019-02-14T04:57:15.404Z,9.60
2019-02-14T05:00:06.222Z,9.57
2019-02-14T05:02:55.990Z,10.07
2019-02-14T05:05:45.763Z,9.97
2019-02-14T05:08:35.570Z,9.97
2019-02-14T05:11:25.416Z,10.00
2019-02-14T05:14:15.301Z,10.43
2019-02-14T05:17:05.073Z,10.40
2019-02-14T05:19:54.808Z,10.10
2019-02-14T05:23:03.665Z,10.60
2019-02-14T05:25:53.546Z,10.53
2019-02-14T05:28:43.314Z,10.80
2019-02-14T05:31:33.106Z,9.17
2019-02-14T05:34:22.942Z,10.03
2019-02-14T05:37:31.737Z,9.23
2019-02-14T05:40:14.060Z,9.83
2019-02-14T05:43:03.812Z,9.50
2019-02-14T05:45:45.758Z,10.83
2019-02-14T05:48:35.503Z,10.53
2019-02-14T05:51:17.488Z,12.03
2019-02-14T05:54:07.479Z,10.90
2019-02-14T05:56:50.076Z,10.67
2019-02-14T05:59:39.795Z,15.27
2019-02-14T06:02:29.706Z,11.03
2019-02-14T06:05:11.959Z,11.20
2019-02-14T06:08:01.706Z,10.13
2019-02-14T06:10:51.500Z,10.47
2019-02-14T06:13:41.280Z,11.47
2019-02-14T06:16:23.884Z,11.27
2019-02-14T06:19:13.669Z,10.90
2019-02-14T06:22:03.524Z,11.90
2019-02-14T06:24:53.354Z,11.57
2019-02-14T06:27:43.123Z,10.70
2019-02-14T06:33:29.652Z,11.20
2019-02-14T06:39:20.980Z,12.13
2019-02-14T06:42:10.696Z,11.10
2019-02-14T06:44:53.066Z,11.57
2019-02-14T06:47:42.816Z,11.17
2019-02-14T06:50:25.439Z,11.40
2019-02-14T06:53:15.176Z,10.57
2019-02-14T06:56:04.945Z,10.47
2019-02-14T06:58:47.788Z,10.40
2019-02-14T07:04:33.608Z,10.20
2019-02-14T07:07:23.384Z,10.43
2019-02-14T07:10:06.486Z,9.97
2019-02-14T07:12:56.215Z,10.53
2019-02-14T07:15:38.779Z,10.17
2019-02-14T07:18:28.547Z,9.77
2019-02-14T07:21:10.611Z,9.07
2019-02-14T07:24:00.373Z,10.80
2019-02-14T07:26:42.770Z,10.50
2019-02-14T07:29:32.697Z,11.07
2019-02-14T07:32:15.253Z,12.90
2019-02-14T07:35:05.151Z,13.27
2019-02-14T07:37:48.089Z,12.67
2019-02-14T07:40:37.854Z,13.17
2019-02-14T07:43:20.084Z,12.80
2019-02-14T07:46:09.850Z,13.90
2019-02-14T07:48:52.224Z,11.83
2019-02-14T07:51:41.991Z,12.13
2019-02-14T07:54:24.121Z,12.73
2019-02-14T07:57:13.825Z,13.10
2019-02-14T07:59:56.365Z,13.10
2019-02-14T08:02:46.083Z,14.47
2019-02-14T08:05:35.837Z,14.33
2019-02-14T08:08:18.037Z,14.43
2019-02-14T08:11:20.733Z,14.53
2019-02-14T08:14:02.884Z,14.83
2019-02-14T08:16:52.616Z,15.57
2019-02-14T08:19:35.159Z,15.07
2019-02-14T08:22:24.925Z,16.67
2019-02-14T08:25:08.189Z,16.40
2019-02-14T08:27:57.927Z,13.97
2019-02-14T08:30:41.791Z,13.57
2019-02-14T08:33:31.517Z,15.50
2019-02-14T08:36:13.587Z,13.87
2019-02-14T08:39:03.565Z,13.03
2019-02-14T08:41:45.743Z,14.20
2019-02-14T08:44:35.487Z,13.90
2019-02-14T08:47:17.589Z,15.40
2019-02-14T08:50:07.739Z,14.53
2019-02-14T08:52:49.977Z,14.57
2019-02-14T08:55:39.733Z,14.30
2019-02-14T08:58:22.335Z,20.73
2019-02-14T09:01:12.049Z,14.60
2019-02-14T09:03:54.542Z,14.60
2019-02-14T09:06:44.291Z,14.10
2019-02-14T09:09:26.500Z,13.03
2019-02-14T09:12:10.059Z,13.97
2019-02-14T09:14:52.047Z,14.70
2019-02-14T09:17:41.837Z,14.90
2019-02-14T09:20:31.597Z,14.17
2019-02-14T09:23:21.380Z,14.60
2019-02-14T09:26:11.212Z,13.80
2019-02-14T09:31:54.857Z,15.43
2019-02-14T09:34:44.771Z,15.03
2019-02-14T09:37:34.551Z,16.07
2019-02-14T09:40:24.346Z,14.90
2019-02-14T09:43:14.054Z,14.63
2019-02-14T09:46:04.201Z,14.97
2019-02-14T09:48:53.960Z,15.20
2019-02-14T09:51:36.376Z,15.27
2019-02-14T09:54:26.386Z,15.90
2019-02-14T09:57:08.408Z,16.17
2019-02-14T09:59:58.135Z,17.60
2019-02-14T10:02:40.316Z,15.73
2019-02-14T10:05:30.072Z,17.47
2019-02-14T10:08:13.195Z,18.97
2019-02-14T10:11:03.052Z,18.23
2019-02-14T10:13:45.294Z,19.43
2019-02-14T10:16:35.091Z,19.57
2019-02-14T10:19:24.906Z,19.00
2019-02-14T10:22:14.750Z,16.60
2019-02-14T10:25:04.560Z,17.47
2019-02-14T10:27:54.275Z,16.93
2019-02-14T10:30:25.004Z,16.63
2019-02-14T10:33:14.760Z,16.90
2019-02-14T10:36:04.648Z,17.03
2019-02-14T10:38:46.774Z,17.97
2019-02-14T10:41:36.494Z,17.60
2019-02-14T10:44:22.784Z,18.67
2019-02-14T10:47:12.540Z,16.47
2019-02-14T10:49:56.718Z,16.63
2019-02-14T10:52:46.750Z,16.93
2019-02-14T10:55:29.436Z,17.37
2019-02-14T10:58:19.526Z,17.70
2019-02-14T11:01:02.046Z,17.13
2019-02-14T11:03:51.800Z,18.03
2019-02-14T11:06:33.973Z,18.30
2019-02-14T11:09:23.693Z,18.43
2019-02-14T11:12:06.215Z,16.50
2019-02-14T11:14:55.971Z,15.93
2019-02-14T11:17:38.757Z,18.13
2019-02-14T11:20:28.558Z,16.87
2019-02-14T11:23:11.593Z,16.40
2019-02-14T11:26:01.352Z,17.27
2019-02-14T11:28:51.170Z,16.93
2019-02-14T11:31:40.988Z,16.60
2019-02-14T11:34:30.820Z,17.00
2019-02-14T11:37:20.623Z,17.53
2019-02-14T11:40:11.319Z,17.27
2019-02-14T11:42:53.405Z,16.30
2019-02-14T11:45:43.228Z,15.37
2019-02-14T11:48:33.093Z,15.87
2019-02-14T11:51:22.915Z,15.83
2019-02-14T11:54:12.749Z,16.20
2019-02-14T11:57:02.536Z,16.67
2019-02-14T11:59:52.301Z,16.70
2019-02-14T12:02:42.045Z,16.47
2019-02-14T12:05:31.857Z,16.43
2019-02-14T12:08:21.673Z,16.03
2019-02-14T12:11:11.414Z,16.57
2019-02-14T12:14:01.144Z,15.63
2019-02-14T12:16:50.861Z,15.90
2019-02-14T12:19:32.928Z,16.00
2019-02-14T12:22:22.669Z,15.40
2019-02-14T12:25:06.135Z,15.03
2019-02-14T12:27:55.851Z,16.00
2019-02-14T12:30:38.143Z,15.97
2019-02-14T12:33:27.925Z,15.53
2019-02-14T12:36:09.890Z,16.13
2019-02-14T12:39:08.320Z,15.67
2019-02-14T12:41:43.805Z,14.57
2019-02-14T12:44:33.604Z,15.50
2019-02-14T12:47:23.473Z,15.57
2019-02-14T12:50:13.221Z,15.83
2019-02-14T12:53:03.057Z,14.77
2019-02-14T12:55:47.666Z,15.07
2019-02-14T12:58:37.318Z,14.60
2019-02-14T13:01:21.761Z,16.27
2019-02-14T13:04:11.277Z,16.80
2019-02-14T13:06:54.117Z,14.83
2019-02-14T13:09:44.171Z,15.80
2019-02-14T13:12:33.980Z,14.57
2019-02-14T13:15:24.164Z,14.10
2019-02-14T13:18:13.916Z,14.77
2019-02-14T13:21:03.766Z,15.07
2019-02-14T13:23:53.645Z,15.73
2019-02-14T13:27:02.523Z,15.70
2019-02-14T13:29:52.235Z,15.80
2019-02-14T13:32:42.302Z,15.93
2019-02-14T13:35:32.150Z,14.33
2019-02-14T13:38:14.978Z,16.13
2019-02-14T13:41:04.727Z,16.00
2019-02-14T13:43:47.322Z,15.60
2019-02-14T13:46:37.043Z,16.43
2019-02-14T13:49:19.604Z,15.17
2019-02-14T13:52:09.409Z,15.00
2019-02-14T13:54:52.226Z,14.77
2019-02-14T14:03:37.621Z,15.40
2019-02-14T14:06:25.400Z,14.40
2019-02-14T14:09:12.391Z,13.07
2019-02-14T14:12:02.612Z,13.07
2019-02-14T14:14:52.812Z,12.83
2019-02-14T14:17:42.619Z,12.33
2019-02-14T14:20:32.361Z,12.53
2019-02-14T14:23:14.536Z,12.40
2019-02-14T14:26:04.350Z,12.50
2019-02-14T14:28:54.210Z,12.53
2019-02-14T14:31:43.986Z,13.00
2019-02-14T14:34:33.716Z,13.10
2019-02-14T14:37:16.557Z,13.60
2019-02-14T14:40:07.356Z,13.63
2019-02-14T14:43:15.986Z,13.50
2019-02-14T14:49:06.580Z,13.13
2019-02-14T14:51:56.327Z,13.23
2019-02-14T14:54:38.581Z,12.73
2019-02-14T14:57:28.309Z,12.90
2019-02-14T15:00:14.430Z,12.33
2019-02-14T15:03:04.224Z,12.83
2019-02-14T15:05:46.992Z,12.57
2019-02-14T15:08:36.781Z,13.77
2019-02-14T15:11:26.670Z,13.33
2019-02-14T15:14:16.619Z,13.20
2019-02-14T15:16:58.659Z,12.63
2019-02-14T15:19:41.337Z,12.97
2019-02-14T15:22:31.101Z,12.73
2019-02-14T15:25:17.977Z,11.77
2019-02-14T15:28:16.879Z,12.77
2019-02-14T15:31:06.825Z,13.13
2019-02-14T15:33:56.783Z,12.47
2019-02-14T15:36:47.197Z,13.50
2019-02-14T15:39:30.918Z,13.03
2019-02-14T15:42:33.441Z,13.30
2019-02-14T15:45:17.053Z,12.50
2019-02-14T15:48:06.805Z,13.27
2019-02-14T15:50:49.089Z,13.50
2019-02-14T15:53:38.797Z,12.63
2019-02-14T15:56:21.037Z,12.30
2019-02-14T15:59:29.891Z,12.50
2019-02-14T16:02:13.690Z,12.87
2019-02-14T16:08:09.435Z,13.53
2019-02-14T16:10:55.968Z,13.87
2019-02-14T16:13:38.900Z,12.70
2019-02-14T16:16:28.680Z,13.03
2019-02-14T16:19:18.513Z,13.33
2019-02-14T16:22:08.237Z,13.10
2019-02-14T16:24:57.951Z,13.33
2019-02-14T16:27:48.206Z,12.77
2019-02-14T16:30:33.324Z,12.77
2019-02-14T16:33:23.624Z,12.83
2019-02-14T16:36:08.589Z,13.67
2019-02-14T16:38:59.311Z,14.20
2019-02-14T16:41:42.441Z,14.03
2019-02-14T16:44:32.563Z,12.53
2019-02-14T16:47:14.861Z,12.83
2019-02-14T16:50:04.939Z,13.77
2019-02-14T16:52:47.596Z,13.67
2019-02-14T16:55:37.359Z,13.27
2019-02-14T16:58:20.669Z,14.73
2019-02-14T17:01:10.427Z,13.97
2019-02-14T17:03:52.745Z,14.30
2019-02-14T17:06:42.593Z,14.50
2019-02-14T17:09:44.137Z,13.90
2019-02-14T17:12:22.301Z,14.67
2019-02-14T17:15:05.034Z,15.20
2019-02-14T17:17:55.083Z,15.87
2019-02-14T17:20:42.068Z,15.50
2019-02-14T17:23:31.804Z,15.27
2019-02-14T17:26:13.894Z,17.23
2019-02-14T17:29:03.824Z,17.33
2019-02-14T17:31:45.998Z,16.93
2019-02-14T17:34:35.770Z,16.77
2019-02-14T17:37:17.756Z,17.00
2019-02-14T17:40:07.954Z,16.27
2019-02-14T17:42:52.485Z,16.30
2019-02-14T17:45:41.926Z,16.10
2019-02-14T17:48:24.428Z,16.00
2019-02-14T17:51:14.169Z,16.13
2019-02-14T17:53:56.430Z,17.23
2019-02-14T17:56:46.172Z,16.43
2019-02-14T17:59:28.455Z,17.10
2019-02-14T18:05:21.274Z,16.50
2019-02-14T18:08:11.032Z,16.87
2019-02-14T18:10:55.000Z,16.50
2019-02-14T18:16:41.036Z,16.93
2019-02-14T18:19:23.544Z,16.43
2019-02-14T18:22:13.395Z,16.17
2019-02-14T18:25:03.609Z,15.83
2019-02-14T18:27:53.406Z,15.83
2019-02-14T18:30:43.217Z,15.30
2019-02-14T18:33:33.053Z,14.63
2019-02-14T18:36:22.765Z,15.80
2019-02-14T18:39:09.650Z,15.10
2019-02-14T18:41:52.119Z,16.50
2019-02-14T18:44:41.936Z,16.67
2019-02-14T18:47:39.473Z,17.77
2019-02-14T18:50:15.957Z,19.70
2019-02-14T18:53:05.747Z,20.67
2019-02-14T18:55:48.449Z,20.77
2019-02-14T18:58:51.213Z,21.00
2019-02-14T19:01:33.916Z,20.90
2019-02-14T19:04:23.613Z,19.80
2019-02-14T19:07:05.701Z,20.90
2019-02-14T19:09:55.416Z,19.20
2019-02-14T19:12:39.331Z,20.27
2019-02-14T19:15:29.467Z,20.13
2019-02-14T19:18:11.511Z,20.00
2019-02-14T19:21:01.276Z,20.57
2019-02-14T19:23:43.298Z,19.77
2019-02-14T19:26:33.024Z,19.70
2019-02-14T19:29:16.939Z,19.83
2019-02-14T19:32:06.719Z,18.93
2019-02-14T19:34:49.384Z,20.37
2019-02-14T19:37:39.210Z,19.00
2019-02-14T19:40:21.247Z,18.70
2019-02-14T19:43:10.999Z,18.10
2019-02-14T19:45:53.071Z,19.07
2019-02-14T19:48:42.793Z,18.57
2019-02-14T19:51:25.242Z,20.07
2019-02-14T19:54:14.969Z,19.17
2019-02-14T19:56:57.012Z,18.37
2019-02-14T19:59:46.729Z,18.93
2019-02-14T20:02:29.003Z,17.50
2019-02-14T20:05:18.865Z,19.80
2019-02-14T20:08:01.140Z,18.17
2019-02-14T20:11:09.673Z,18.53
2019-02-14T20:13:51.789Z,18.40
2019-02-14T20:16:41.602Z,18.33
2019-02-14T20:19:31.517Z,18.47
2019-02-14T20:25:25.073Z,18.50
2019-02-14T20:28:07.743Z,18.90
2019-02-14T20:30:57.567Z,18.37
2019-02-14T20:33:47.671Z,18.60
2019-02-14T20:36:30.321Z,19.20
2019-02-14T20:39:20.069Z,18.20
2019-02-14T20:42:02.618Z,19.10
2019-02-14T20:44:52.427Z,18.03
2019-02-14T20:47:42.317Z,19.60
2019-02-14T20:50:32.120Z,19.20
2019-02-14T20:53:21.945Z,19.53
2019-02-14T20:56:11.750Z,18.43
2019-02-14T20:59:01.610Z,18.47
2019-02-14T21:01:51.591Z,18.07
2019-02-14T21:04:41.413Z,16.53
2019-02-14T21:07:31.154Z,17.60
2019-02-14T21:10:14.247Z,17.90
2019-02-14T21:13:04.273Z,17.47
2019-02-14T21:15:54.206Z,17.40
2019-02-14T21:18:44.038Z,17.73
2019-02-14T21:21:33.878Z,17.33
2019-02-14T21:24:23.621Z,17.40
2019-02-14T21:27:06.295Z,18.23
2019-02-14T21:29:49.179Z,18.80
2019-02-14T21:32:38.965Z,18.80
2019-02-14T21:35:28.812Z,18.63
2019-02-14T21:38:18.598Z,17.90
2019-02-14T21:41:08.444Z,16.93
2019-02-14T21:43:58.274Z,16.97
2019-02-14T21:46:48.198Z,17.67
2019-02-14T21:49:38.071Z,16.70
2019-02-14T21:52:27.900Z,16.67
2019-02-14T21:55:17.774Z,15.87
2019-02-14T21:58:07.616Z,16.43
2019-02-14T22:00:57.424Z,15.47
2019-02-14T22:03:47.512Z,16.37
2019-02-14T22:06:37.300Z,16.43
2019-02-14T22:09:27.082Z,15.87
2019-02-14T22:12:16.930Z,15.93
2019-02-14T22:18:12.491Z,15.33
2019-02-14T22:20:54.608Z,15.37
2019-02-14T22:23:44.405Z,15.10
2019-02-14T22:26:34.438Z,16.23
2019-02-14T22:34:56.376Z,16.63
2019-02-14T22:37:46.090Z,16.27
2019-02-14T22:40:28.882Z,15.93
2019-02-14T22:43:18.633Z,17.27
2019-02-14T22:46:01.276Z,17.40
2019-02-14T22:48:51.002Z,18.70
2019-02-14T22:51:33.061Z,18.63
2019-02-14T22:54:22.859Z,18.80
2019-02-14T22:57:05.512Z,18.33
2019-02-14T23:02:56.616Z,18.30
2019-02-14T23:05:46.497Z,18.17
2019-02-14T23:08:29.136Z,17.83
2019-02-14T23:11:18.856Z,16.37
2019-02-14T23:14:02.515Z,16.53
2019-02-14T23:16:52.386Z,17.27
2019-02-14T23:19:34.609Z,17.10
2019-02-14T23:22:24.348Z,16.13
2019-02-14T23:25:06.599Z,16.30
2019-02-14T23:27:56.560Z,15.40
2019-02-14T23:30:38.671Z,15.10
2019-02-14T23:33:29.007Z,15.43
2019-02-14T23:36:13.360Z,17.67
2019-02-14T23:42:06.409Z,18.70
2019-02-14T23:44:56.123Z,18.77
2019-02-14T23:47:38.837Z,18.87
2019-02-14T23:50:28.567Z,19.80
2019-02-14T23:53:11.069Z,20.40
2019-02-14T23:56:00.829Z,20.40
2019-02-14T23:58:50.551Z,20.27
